Terminal Aerodrome Forecast
Issued by NWS

Home | Current Version | Previous Version | Text Only | Print | Product List | Glossary On
Versions: 1 2 3 4 5 6 7 8 9 10 11 12 13 14 15 16
000
FTUS43 KABR 251700
TAFPIR
TAF
KPIR 251726Z 2518/2618 32015G24KT P6SM SKC
     FM260200 VRB04KT P6SM SKC
     FM261400 32010KT P6SM BKN250=

USA.gov is the U.S. government's official web portal to all federal, state and local government web resources and services.